createdAt,value
2022-12-23T00:01:05.031Z,100511.72
2022-12-23T00:03:32.664Z,100517.56
2022-12-23T00:06:00.244Z,100511.09
2022-12-23T00:08:27.697Z,100515.06
2022-12-23T00:10:56.659Z,100505.53
2022-12-23T00:13:41.922Z,100509.78
2022-12-23T00:16:14.164Z,100514.41
2022-12-23T00:18:41.528Z,100491.16
2022-12-23T00:21:13.843Z,100506.38
2022-12-23T00:23:43.011Z,100498.38
2022-12-23T00:26:24.431Z,100503.03
2022-12-23T00:28:51.599Z,100512.03
2022-12-23T00:31:19.341Z,100520.09
2022-12-23T00:33:48.557Z,100515.59
2022-12-23T00:36:21.100Z,100505.22
2022-12-23T00:39:06.623Z,100517.72
2022-12-23T00:41:51.936Z,100513.41
2022-12-23T00:44:18.539Z,100513.75
2022-12-23T00:46:44.990Z,100518.25
2022-12-23T00:49:34.993Z,100526.56
2022-12-23T00:52:02.016Z,100527.41
2022-12-23T00:54:29.090Z,100521.91
2022-12-23T00:56:55.538Z,100523.44
2022-12-23T00:59:21.886Z,100531.25
2022-12-23T01:02:06.848Z,100533.91
2022-12-23T01:04:52.441Z,100519.66
2022-12-23T01:07:19.085Z,100538.94
2022-12-23T01:09:45.532Z,100508.94
2022-12-23T01:12:11.966Z,100535.56
2022-12-23T01:14:38.966Z,100543.97
2022-12-23T01:17:07.475Z,100542.09
2022-12-23T01:19:34.392Z,100535.69
2022-12-23T01:22:00.763Z,100555.78
2022-12-23T01:24:29.230Z,100559.44
2022-12-23T01:26:55.637Z,100565.13
2022-12-23T01:29:22.030Z,100575.81
2022-12-23T01:31:48.482Z,100570.75
2022-12-23T01:34:14.944Z,100571.97
2022-12-23T01:36:41.432Z,100572.16
2022-12-23T01:39:07.799Z,100574.13
2022-12-23T01:41:53.151Z,100577.78
2022-12-23T01:44:57.123Z,100574.97
2022-12-23T01:47:29.164Z,100579.81
2022-12-23T01:50:06.123Z,100580.31
2022-12-23T01:52:34.484Z,100589.81
2022-12-23T01:55:01.043Z,100581.13
2022-12-23T01:57:27.977Z,100590.66
2022-12-23T02:00:12.981Z,100591.81
2022-12-23T02:03:00.632Z,100594.31
2022-12-23T02:05:27.216Z,100597.59
2022-12-23T02:08:13.081Z,100571.34
2022-12-23T02:11:01.360Z,100591.50
2022-12-23T02:14:10.239Z,100576.06
2022-12-23T02:16:46.524Z,100573.69
2022-12-23T02:19:51.896Z,100581.59
2022-12-23T02:22:26.977Z,100582.59
2022-12-23T02:25:29.078Z,100605.63
2022-12-23T02:28:23.191Z,100621.19
2022-12-23T02:31:01.159Z,100619.56
2022-12-23T02:34:00.506Z,100624.22
2022-12-23T02:36:40.841Z,100627.50
2022-12-23T02:39:20.582Z,100631.19
2022-12-23T02:41:57.186Z,100631.50
2022-12-23T02:44:29.552Z,100630.34
2022-12-23T02:47:04.218Z,100640.31
2022-12-23T02:49:34.775Z,100625.53
2022-12-23T02:52:05.596Z,100647.19
2022-12-23T02:54:38.362Z,100654.22
2022-12-23T02:57:07.543Z,100663.72
2022-12-23T02:59:39.881Z,100667.03
2022-12-23T03:02:06.406Z,100645.91
2022-12-23T03:04:32.947Z,100672.22
2022-12-23T03:07:05.885Z,100662.47
2022-12-23T03:09:58.613Z,100661.25
2022-12-23T03:12:52.595Z,100656.19
2022-12-23T03:15:38.516Z,100662.22
2022-12-23T03:18:05.004Z,100667.72
2022-12-23T03:21:06.092Z,100673.59
2022-12-23T03:23:38.610Z,100672.22
2022-12-23T03:26:16.325Z,100682.22
2022-12-23T03:28:52.030Z,100688.38
2022-12-23T03:31:25.132Z,100695.88
2022-12-23T03:33:58.117Z,100693.34
2022-12-23T03:36:29.107Z,100701.72
2022-12-23T03:38:57.177Z,100700.91
2022-12-23T03:41:30.603Z,100711.59
2022-12-23T03:44:08.985Z,100706.53
2022-12-23T03:46:45.684Z,100702.56
2022-12-23T03:49:17.419Z,100675.44
2022-12-23T03:51:59.178Z,100672.44
2022-12-23T03:54:36.935Z,100694.72
2022-12-23T03:57:05.489Z,100697.56
2022-12-23T03:59:38.366Z,100694.41
2022-12-23T04:02:21.085Z,100712.81
2022-12-23T04:05:06.237Z,100721.19
2022-12-23T04:07:45.026Z,100712.50
2022-12-23T04:10:13.315Z,100703.78
2022-12-23T04:12:40.296Z,100702.75
2022-12-23T04:15:12.566Z,100724.31
2022-12-23T04:17:39.421Z,100727.38
2022-12-23T04:20:07.013Z,100728.22
2022-12-23T04:22:33.375Z,100724.84
2022-12-23T04:24:59.725Z,100730.47
2022-12-23T04:27:26.105Z,100733.69
2022-12-23T04:29:52.813Z,100715.06
2022-12-23T04:32:19.171Z,100736.84
2022-12-23T04:34:45.562Z,100739.19
2022-12-23T04:37:11.928Z,100735.81
2022-12-23T04:39:38.272Z,100735.22
2022-12-23T04:42:04.707Z,100740.88
2022-12-23T04:44:31.069Z,100739.19
2022-12-23T04:46:57.664Z,100737.34
2022-12-23T04:49:24.184Z,100742.19
2022-12-23T04:51:50.546Z,100746.81
2022-12-23T04:54:16.918Z,100742.78
2022-12-23T04:56:43.300Z,100740.91
2022-12-23T04:59:10.348Z,100743.53
2022-12-23T05:01:36.886Z,100747.03
2022-12-23T05:04:03.381Z,100745.94
2022-12-23T05:06:29.745Z,100740.00
2022-12-23T05:08:56.186Z,100747.63
2022-12-23T05:11:23.052Z,100742.44
2022-12-23T05:13:49.448Z,100750.69
2022-12-23T05:16:15.867Z,100750.13
2022-12-23T05:18:42.355Z,100752.28
2022-12-23T05:21:09.519Z,100751.44
2022-12-23T05:23:36.067Z,100730.44
2022-12-23T05:26:02.510Z,100735.19
2022-12-23T05:28:29.426Z,100765.00
2022-12-23T05:31:05.469Z,100753.56
2022-12-23T05:33:32.524Z,100759.06
2022-12-23T05:35:59.447Z,100769.88
2022-12-23T05:38:26.226Z,100768.88
2022-12-23T05:40:52.762Z,100762.59
2022-12-23T05:43:19.283Z,100759.00
2022-12-23T05:45:46.703Z,100761.69
2022-12-23T05:48:13.443Z,100757.47
2022-12-23T05:50:40.091Z,100766.91
2022-12-23T05:53:07.104Z,100763.97
2022-12-23T05:55:34.236Z,100776.19
2022-12-23T05:58:00.774Z,100783.34
2022-12-23T06:00:27.708Z,100761.38
2022-12-23T06:02:54.601Z,100787.25
2022-12-23T06:05:21.713Z,100790.16
2022-12-23T06:07:48.142Z,100775.69
2022-12-23T06:10:14.515Z,100781.28
2022-12-23T06:12:40.873Z,100781.72
2022-12-23T06:15:08.407Z,100784.09
2022-12-23T06:17:34.824Z,100782.94
2022-12-23T06:20:01.300Z,100769.94
2022-12-23T06:22:27.746Z,100784.94
2022-12-23T06:24:54.173Z,100787.38
2022-12-23T06:27:20.589Z,100784.59
2022-12-23T06:29:47.160Z,100788.53
2022-12-23T06:32:13.589Z,100789.34
2022-12-23T06:34:40.150Z,100782.44
2022-12-23T06:37:06.833Z,100781.91
2022-12-23T06:39:33.513Z,100780.22
2022-12-23T06:41:59.887Z,100799.28
2022-12-23T06:44:26.271Z,100800.97
2022-12-23T06:46:52.613Z,100807.03
2022-12-23T06:49:18.971Z,100797.06
2022-12-23T06:51:45.339Z,100816.44
2022-12-23T06:54:12.116Z,100823.31
2022-12-23T06:56:38.981Z,100831.31
2022-12-23T06:59:05.719Z,100826.81
2022-12-23T07:01:32.218Z,100837.22
2022-12-23T07:03:58.671Z,100816.78
2022-12-23T07:06:25.090Z,100845.47
2022-12-23T07:08:51.496Z,100853.47
2022-12-23T07:11:18.531Z,100835.53
2022-12-23T07:13:46.289Z,100862.06
2022-12-23T07:16:12.846Z,100868.38
2022-12-23T07:18:39.233Z,100876.38
2022-12-23T07:21:08.838Z,100869.63
2022-12-23T07:23:39.841Z,100883.78
2022-12-23T07:26:06.207Z,100885.47
2022-12-23T07:28:32.588Z,100885.91
2022-12-23T07:30:58.969Z,100885.75
2022-12-23T07:33:25.380Z,100887.44
2022-12-23T07:35:51.744Z,100887.44
2022-12-23T07:38:18.087Z,100870.78
2022-12-23T07:40:48.773Z,100890.56
2022-12-23T07:43:15.144Z,100874.81
2022-12-23T07:45:41.702Z,100893.06
2022-12-23T07:48:08.725Z,100888.88
2022-12-23T07:50:35.210Z,100873.72
2022-12-23T07:53:01.584Z,100872.06
2022-12-23T07:55:27.935Z,100893.06
2022-12-23T07:57:54.354Z,100866.59
2022-12-23T08:00:21.117Z,100876.81
2022-12-23T08:02:48.320Z,100892.25
2022-12-23T08:05:15.211Z,100904.16
2022-12-23T08:07:42.100Z,100900.06
2022-12-23T08:10:09.131Z,100910.47
2022-12-23T08:12:35.538Z,100901.19
2022-12-23T08:15:01.989Z,100901.75
2022-12-23T08:17:30.251Z,100898.91
2022-12-23T08:19:57.022Z,100897.22
2022-12-23T08:22:24.106Z,100891.03
2022-12-23T08:24:50.539Z,100879.25
2022-12-23T08:27:16.966Z,100883.16
2022-12-23T08:29:43.345Z,100851.19
2022-12-23T08:32:09.816Z,100887.31
2022-12-23T08:34:36.709Z,100881.16
2022-12-23T08:37:03.281Z,100882.56
2022-12-23T08:39:29.671Z,100866.22
2022-12-23T08:41:56.124Z,100871.88
2022-12-23T08:44:22.958Z,100876.75
2022-12-23T08:46:49.400Z,100875.47
2022-12-23T08:49:15.892Z,100875.34
2022-12-23T08:51:42.523Z,100872.66
2022-12-23T08:54:10.142Z,100871.81
2022-12-23T08:56:40.263Z,100870.69
2022-12-23T08:59:07.210Z,100862.56
2022-12-23T09:01:34.977Z,100867.63
2022-12-23T09:04:04.045Z,100870.97
2022-12-23T09:06:34.578Z,100862.56
2022-12-23T09:09:01.092Z,100859.19
2022-12-23T09:11:29.164Z,100869.84
2022-12-23T09:13:56.748Z,100865.44
2022-12-23T09:16:23.239Z,100857.13
2022-12-23T09:18:49.733Z,100859.91
2022-12-23T09:21:21.088Z,100862.03
2022-12-23T09:23:48.300Z,100861.97
2022-12-23T09:26:26.601Z,100864.94
2022-12-23T09:28:53.970Z,100852.81
2022-12-23T09:31:21.294Z,100871.84
2022-12-23T09:33:50.377Z,100869.44
2022-12-23T09:36:17.656Z,100867.34
2022-12-23T09:38:44.398Z,100853.88
2022-12-23T09:41:29.019Z,100876.56
2022-12-23T09:44:20.104Z,100873.91
2022-12-23T09:46:55.298Z,100869.53
2022-12-23T09:49:23.757Z,100858.31
2022-12-23T09:51:54.131Z,100833.84
2022-12-23T09:54:28.888Z,100804.72
2022-12-23T09:57:00.347Z,100823.66
2022-12-23T09:59:51.326Z,100833.97
2022-12-23T10:02:44.448Z,100833.13
2022-12-23T10:05:24.289Z,100823.78
2022-12-23T10:07:55.808Z,100797.88
2022-12-23T10:10:34.988Z,100815.69
2022-12-23T10:13:05.903Z,100816.81
2022-12-23T10:15:41.272Z,100807.94
2022-12-23T10:18:20.215Z,100818.97
2022-12-23T10:21:08.628Z,100815.47
2022-12-23T10:23:38.239Z,100813.63
2022-12-23T10:26:20.239Z,100808.38
2022-12-23T10:28:46.742Z,100804.88
2022-12-23T10:34:26.939Z,100805.50
2022-12-23T10:37:17.217Z,100806.03
2022-12-23T10:39:57.129Z,100804.00
2022-12-23T10:42:48.309Z,100804.16
2022-12-23T10:46:11.890Z,100795.97
2022-12-23T10:49:21.427Z,100775.84
2022-12-23T10:51:55.223Z,100760.47
2022-12-23T10:54:28.044Z,100772.69
2022-12-23T10:56:54.992Z,100747.69
2022-12-23T10:59:31.849Z,100763.69
2022-12-23T11:02:15.807Z,100758.47
2022-12-23T11:04:49.123Z,100777.34
2022-12-23T11:07:43.899Z,100778.88
2022-12-23T11:10:19.352Z,100740.31
2022-12-23T11:12:49.377Z,100764.47
2022-12-23T11:15:29.122Z,100732.44
2022-12-23T11:18:13.712Z,100753.44
2022-12-23T11:20:42.445Z,100744.78
2022-12-23T11:23:26.566Z,100734.69
2022-12-23T11:26:02.429Z,100741.44
2022-12-23T11:28:30.575Z,100747.44
2022-12-23T11:31:05.429Z,100736.38
2022-12-23T11:34:06.057Z,100733.06
2022-12-23T11:36:34.133Z,100728.72
2022-12-23T11:39:03.145Z,100740.75
2022-12-23T11:41:38.986Z,100742.28
2022-12-23T11:44:21.979Z,100732.72
2022-12-23T11:46:49.415Z,100724.91
2022-12-23T11:49:22.216Z,100720.34
2022-12-23T11:52:10.267Z,100712.84
2022-12-23T11:54:38.836Z,100704.28
2022-12-23T11:57:09.880Z,100701.47
2022-12-23T11:59:51.389Z,100680.38
2022-12-23T12:02:31.359Z,100685.94
2022-12-23T12:05:01.720Z,100670.06
2022-12-23T12:07:30.278Z,100667.59
2022-12-23T12:10:01.150Z,100660.41
2022-12-23T12:12:29.768Z,100653.38
2022-12-23T12:15:00.348Z,100636.63
2022-12-23T12:17:26.646Z,100652.69
2022-12-23T12:19:59.720Z,100653.53
2022-12-23T12:22:51.856Z,100651.72
2022-12-23T12:25:22.330Z,100654.06
2022-12-23T12:28:02.840Z,100651.09
2022-12-23T12:30:43.568Z,100651.19
2022-12-23T12:33:23.300Z,100647.19
2022-12-23T12:36:05.106Z,100642.19
2022-12-23T12:38:33.203Z,100651.53
2022-12-23T12:41:18.141Z,100656.88
2022-12-23T12:43:52.495Z,100637.97
2022-12-23T12:46:34.225Z,100633.84
2022-12-23T12:49:09.410Z,100625.63
2022-12-23T12:52:03.380Z,100614.09
2022-12-23T12:54:49.011Z,100609.75
2022-12-23T12:57:18.531Z,100605.53
2022-12-23T12:59:47.769Z,100599.84
2022-12-23T13:02:36.352Z,100608.38
2022-12-23T13:05:09.200Z,100611.38
2022-12-23T13:07:55.702Z,100609.19
2022-12-23T13:10:52.181Z,100608.84
2022-12-23T13:13:32.557Z,100610.22
2022-12-23T13:16:16.928Z,100610.34
2022-12-23T13:18:55.213Z,100604.19
2022-12-23T13:21:21.522Z,100601.19
2022-12-23T13:24:09.833Z,100600.34
2022-12-23T13:26:51.458Z,100603.31
2022-12-23T13:29:57.736Z,100600.66
2022-12-23T13:32:43.149Z,100597.31
2022-12-23T13:35:12.481Z,100602.38
2022-12-23T13:37:57.234Z,100600.00
2022-12-23T13:40:38.134Z,100597.97
2022-12-23T13:43:26.096Z,100580.06
2022-12-23T13:45:55.138Z,100589.09
2022-12-23T13:48:43.666Z,100577.38
2022-12-23T13:51:44.437Z,100573.72
2022-12-23T13:54:38.349Z,100539.22
2022-12-23T13:57:23.782Z,100562.19
2022-12-23T14:00:29.082Z,100559.66
2022-12-23T14:03:00.011Z,100552.47
2022-12-23T14:05:41.942Z,100552.47
2022-12-23T14:08:23.331Z,100532.53
2022-12-23T14:11:12.514Z,100542.94
2022-12-23T14:13:51.076Z,100543.59
2022-12-23T14:16:20.495Z,100539.22
2022-12-23T14:19:20.868Z,100539.94
2022-12-23T14:21:47.151Z,100535.56
2022-12-23T14:25:02.640Z,100536.22
2022-12-23T14:27:54.035Z,100529.19
2022-12-23T14:30:35.766Z,100506.81
2022-12-23T14:33:16.221Z,100522.19
2022-12-23T14:35:43.078Z,100521.66
2022-12-23T14:38:22.895Z,100521.34
2022-12-23T14:40:55.077Z,100523.03
2022-12-23T14:43:27.236Z,100519.66
2022-12-23T14:46:04.977Z,100523.34
2022-12-23T14:48:34.363Z,100516.84
2022-12-23T14:51:09.952Z,100510.31
2022-12-23T14:53:57.466Z,100520.50
2022-12-23T14:56:39.370Z,100520.31
2022-12-23T14:59:31.481Z,100522.00
2022-12-23T15:02:01.751Z,100516.13
2022-12-23T15:04:47.819Z,100517.13
2022-12-23T15:07:40.651Z,100512.25
2022-12-23T15:10:07.236Z,100518.28
2022-12-23T15:12:40.521Z,100516.47
2022-12-23T15:15:17.656Z,100510.78
2022-12-23T15:17:44.647Z,100507.25
2022-12-23T15:20:11.058Z,100511.13
2022-12-23T15:22:39.003Z,100506.06
2022-12-23T15:25:18.321Z,100500.28
2022-12-23T15:27:44.868Z,100483.88
2022-12-23T15:30:13.594Z,100496.22
2022-12-23T15:32:43.005Z,100498.75
2022-12-23T15:35:16.136Z,100498.91
2022-12-23T15:37:42.560Z,100491.72
2022-12-23T15:40:24.235Z,100488.75
2022-12-23T15:42:50.656Z,100482.88
2022-12-23T15:45:22.814Z,100482.53
2022-12-23T15:47:50.269Z,100478.53
2022-12-23T15:50:18.693Z,100476.53
2022-12-23T15:52:47.317Z,100478.03
2022-12-23T15:55:27.757Z,100474.50
2022-12-23T15:57:54.923Z,100465.16
2022-12-23T16:00:23.143Z,100472.84
2022-12-23T16:03:01.145Z,100475.00
2022-12-23T16:05:36.578Z,100463.13
2022-12-23T16:08:30.814Z,100465.63
2022-12-23T16:11:16.239Z,100465.16
2022-12-23T16:14:19.987Z,100461.50
2022-12-23T16:16:46.558Z,100454.78
2022-12-23T16:19:45.986Z,100442.09
2022-12-23T16:22:29.176Z,100447.44
2022-12-23T16:25:22.904Z,100441.28
2022-12-23T16:27:56.795Z,100444.09
2022-12-23T16:30:33.302Z,100447.25
2022-12-23T16:33:02.918Z,100446.41
2022-12-23T16:35:42.993Z,100438.75
2022-12-23T16:38:26.158Z,100439.41
2022-12-23T16:40:56.775Z,100450.75
2022-12-23T16:43:24.867Z,100443.59
2022-12-23T16:45:56.510Z,100419.66
2022-12-23T16:48:31.334Z,100421.66
2022-12-23T16:50:58.966Z,100443.06
2022-12-23T16:53:25.591Z,100437.38
2022-12-23T16:55:56.808Z,100433.66
2022-12-23T16:58:26.505Z,100446.75
2022-12-23T17:00:53.093Z,100422.63
2022-12-23T17:03:20.570Z,100445.38
2022-12-23T17:05:48.169Z,100444.19
2022-12-23T17:08:14.917Z,100451.25
2022-12-23T17:10:44.412Z,100446.22
2022-12-23T17:13:17.375Z,100440.19
2022-12-23T17:15:44.683Z,100449.69
2022-12-23T17:18:16.821Z,100418.28
2022-12-23T17:20:45.683Z,100440.03
2022-12-23T17:23:30.985Z,100441.03
2022-12-23T17:25:57.471Z,100446.88
2022-12-23T17:28:28.874Z,100445.69
2022-12-23T17:30:56.080Z,100451.34
2022-12-23T17:33:26.971Z,100450.34
2022-12-23T17:35:53.536Z,100452.34
2022-12-23T17:38:19.984Z,100455.38
2022-12-23T17:40:47.428Z,100454.03
2022-12-23T17:43:16.624Z,100455.66
2022-12-23T17:45:43.996Z,100448.69
2022-12-23T17:48:17.967Z,100453.38
2022-12-23T17:50:47.506Z,100456.00
2022-12-23T17:53:16.133Z,100455.16
2022-12-23T17:55:42.501Z,100436.28
2022-12-23T17:58:09.088Z,100452.66
2022-12-23T18:00:37.037Z,100448.16
2022-12-23T18:03:07.498Z,100452.00
2022-12-23T18:05:36.162Z,100450.66
2022-12-23T18:08:03.394Z,100449.84
2022-12-23T18:10:33.526Z,100455.66
2022-12-23T18:13:02.482Z,100455.16
2022-12-23T18:15:43.326Z,100456.50
2022-12-23T18:18:20.559Z,100449.69
2022-12-23T18:20:55.967Z,100463.34
2022-12-23T18:23:25.705Z,100463.19
2022-12-23T18:25:52.168Z,100431.72
2022-12-23T18:28:18.678Z,100447.66
2022-12-23T18:30:45.318Z,100458.03
2022-12-23T18:33:12.679Z,100463.03
2022-12-23T18:35:43.077Z,100457.69
2022-12-23T18:38:10.536Z,100454.66
2022-12-23T18:40:37.985Z,100454.34
2022-12-23T18:43:04.783Z,100454.19
2022-12-23T18:45:37.613Z,100454.13
2022-12-23T18:48:07.023Z,100455.66
2022-12-23T18:50:34.865Z,100445.44
2022-12-23T18:53:02.029Z,100453.00
2022-12-23T18:55:30.331Z,100462.00
2022-12-23T18:57:58.697Z,100462.00
2022-12-23T19:00:27.823Z,100462.00
2022-12-23T19:02:54.977Z,100448.28
2022-12-23T19:05:27.448Z,100462.81
2022-12-23T19:07:56.067Z,100463.81
2022-12-23T19:10:28.826Z,100453.28
2022-12-23T19:12:56.582Z,100457.78
2022-12-23T19:15:23.373Z,100459.47
2022-12-23T19:17:52.581Z,100461.44
2022-12-23T19:20:20.160Z,100457.28
2022-12-23T19:22:47.610Z,100461.16
2022-12-23T19:25:17.792Z,100463.13
2022-12-23T19:27:45.206Z,100466.34
2022-12-23T19:30:15.170Z,100468.16
2022-12-23T19:32:41.594Z,100457.63
2022-12-23T19:35:11.924Z,100463.81
2022-12-23T19:37:38.441Z,100455.31
2022-12-23T19:40:06.086Z,100428.00
2022-12-23T19:42:33.932Z,100461.78
2022-12-23T19:45:00.788Z,100458.63
2022-12-23T19:47:27.384Z,100465.34
2022-12-23T19:49:53.789Z,100471.34
2022-12-23T19:52:20.204Z,100473.34
2022-12-23T19:54:46.626Z,100475.63
2022-12-23T19:57:13.235Z,100472.66
2022-12-23T19:59:39.704Z,100475.34
2022-12-23T20:02:06.612Z,100455.25
2022-12-23T20:04:33.123Z,100461.28
2022-12-23T20:06:59.479Z,100476.03
2022-12-23T20:09:25.900Z,100464.44
2022-12-23T20:11:52.330Z,100484.38
2022-12-23T20:14:19.475Z,100482.03
2022-12-23T20:16:45.969Z,100485.22
2022-12-23T20:19:12.345Z,100480.97
2022-12-23T20:21:38.733Z,100485.31
2022-12-23T20:24:06.290Z,100475.50
2022-12-23T20:26:33.133Z,100485.31
2022-12-23T20:28:59.658Z,100487.00
2022-12-23T20:31:31.570Z,100482.16
2022-12-23T20:33:59.032Z,100481.38
2022-12-23T20:36:28.404Z,100473.81
2022-12-23T20:38:56.005Z,100486.16
2022-12-23T20:41:25.645Z,100488.69
2022-12-23T20:44:23.813Z,100487.84
2022-12-23T20:46:39.139Z,100479.16
2022-12-23T20:49:05.594Z,100487.34
2022-12-23T20:51:32.020Z,100484.03
2022-12-23T20:53:59.887Z,100469.75
2022-12-23T20:56:27.767Z,100498.81
2022-12-23T20:58:54.933Z,100496.00
2022-12-23T21:01:24.470Z,100496.16
2022-12-23T21:03:51.894Z,100493.81
2022-12-23T21:06:18.883Z,100470.91
2022-12-23T21:08:45.314Z,100474.03
2022-12-23T21:11:11.909Z,100494.97
2022-12-23T21:13:40.257Z,100494.97
2022-12-23T21:16:09.203Z,100489.94
2022-12-23T21:18:35.948Z,100498.59
2022-12-23T21:21:04.789Z,100504.28
2022-12-23T21:23:31.968Z,100505.97
2022-12-23T21:26:25.905Z,100505.44
2022-12-23T21:28:54.423Z,100512.78
2022-12-23T21:31:23.124Z,100513.28
2022-12-23T21:33:50.987Z,100515.44
2022-12-23T21:36:20.715Z,100524.44
2022-12-23T21:38:48.450Z,100520.44
2022-12-23T21:41:18.138Z,100516.09
2022-12-23T21:43:44.808Z,100513.63
2022-12-23T21:46:14.468Z,100516.94
2022-12-23T21:48:41.555Z,100515.59
2022-12-23T21:51:08.136Z,100511.31
2022-12-23T21:53:35.790Z,100515.81
2022-12-23T21:56:08.162Z,100514.97
2022-12-23T21:58:35.004Z,100516.44
2022-12-23T22:01:10.271Z,100510.09
2022-12-23T22:03:37.063Z,100510.25
2022-12-23T22:06:11.826Z,100514.25
2022-12-23T22:08:39.047Z,100507.72
2022-12-23T22:11:13.464Z,100503.56
2022-12-23T22:13:41.577Z,100509.91
2022-12-23T22:16:13.528Z,100508.06
2022-12-23T22:18:40.090Z,100515.38
2022-12-23T22:21:12.874Z,100512.84
2022-12-23T22:23:39.676Z,100525.75
2022-12-23T22:26:07.236Z,100507.94
2022-12-23T22:28:35.967Z,100523.09
2022-12-23T22:31:16.455Z,100499.41
2022-12-23T22:33:43.335Z,100498.41
2022-12-23T22:36:15.007Z,100520.50
2022-12-23T22:38:42.535Z,100522.25
2022-12-23T22:41:10.705Z,100522.69
2022-12-23T22:43:38.124Z,100536.22
2022-12-23T22:46:04.979Z,100532.22
2022-12-23T22:48:31.658Z,100530.88
2022-12-23T22:51:05.108Z,100532.38
2022-12-23T22:53:32.405Z,100539.53
2022-12-23T22:55:59.922Z,100539.88
2022-12-23T22:58:27.717Z,100546.41
2022-12-23T23:00:54.361Z,100543.22
2022-12-23T23:03:21.004Z,100513.03
2022-12-23T23:06:09.855Z,100550.22
2022-12-23T23:08:36.335Z,100536.13
2022-12-23T23:11:04.890Z,100556.72
2022-12-23T23:13:34.771Z,100561.22
2022-12-23T23:16:02.330Z,100542.78
2022-12-23T23:18:30.100Z,100563.56
2022-12-23T23:20:56.835Z,100565.09
2022-12-23T23:23:23.294Z,100560.88
2022-12-23T23:25:49.720Z,100563.97
2022-12-23T23:28:16.451Z,100568.75
2022-12-23T23:30:42.896Z,100562.44
2022-12-23T23:33:10.041Z,100563.88
2022-12-23T23:35:37.183Z,100564.25
2022-12-23T23:38:03.600Z,100556.19
2022-12-23T23:40:30.025Z,100546.13
2022-12-23T23:42:56.428Z,100548.28
2022-12-23T23:45:23.053Z,100557.84
2022-12-23T23:47:49.443Z,100549.13
2022-12-23T23:50:15.924Z,100554.13
2022-12-23T23:52:42.299Z,100573.41
2022-12-23T23:55:09.262Z,100566.69
2022-12-23T23:57:35.840Z,100562.34
